Bitola, Macedonia
Current Conditions -  °F | °C
As of 2:00 PM on Saturday 25 Oct 2014 (Local Time) from LWOH Reporting Station
Broken Clouds Broken Clouds  
Wind Chill:   Ceiling: 4000
Heat Index:   Visibility: 6mi
Dew Point:   Wind: 12mph
Humidity: 62%   Direction: 10°N
Pressure: 29.94"   Gusts: NA
Location:  41.04°N, 21.34°E
Report Text: LWOH 251200Z 01010KT 9999 BKN040 09/02 Q1014
Loading
Personal Weather Stations






























Interactive Weather Map
Tropical Storm Tracking
New forecast layout! Learn more

10-Day Weather Forecast

Advertisements
Track Severe Weather on mobile